Time,TemperatureF,DewpointF,PressureIn,WindDirection,WindDirectionDegrees,WindSpeedMPH,WindSpeedGustMPH,Humidity,HourlyPrecipIn,Conditions,Clouds,dailyrainin,SoftwareType,DateUTC
2013-08-14 00:00:00,90.1,36.2,29.75,NNW,336,4.0,8.0,15,0.00,,,0.00,WeatherCatV1.21B27,2013-08-14 07:00:00,
2013-08-14 00:05:00,90.1,36.2,29.75,NW,304,6.0,6.0,15,0.00,,,0.00,WeatherCatV1.21B27,2013-08-14 07:05:00,
2013-08-14 00:10:00,90.1,34.5,29.75,NW,307,8.0,9.0,14,0.00,,,0.00,WeatherCatV1.21B27,2013-08-14 07:10:00,
2013-08-14 00:15:00,90.0,36.1,29.75,WNW,288,4.0,8.0,15,0.00,,,0.00,WeatherCatV1.21B27,2013-08-14 07:15:00,
2013-08-14 00:20:00,89.9,36.0,29.75,WNW,292,5.0,8.0,15,0.00,,,0.00,WeatherCatV1.21B27,2013-08-14 07:20:00,
2013-08-14 00:25:00,89.6,35.8,29.75,WNW,302,3.0,6.0,15,0.00,,,0.00,WeatherCatV1.21B27,2013-08-14 07:25:00,
2013-08-14 00:30:00,89.2,35.5,29.76,NNW,327,4.0,7.0,15,0.00,,,0.00,WeatherCatV1.21B27,2013-08-14 07:30:00,
2013-08-14 00:35:00,89.4,35.6,29.76,NW,312,5.0,7.0,15,0.00,,,0.00,WeatherCatV1.21B27,2013-08-14 07:35:00,
2013-08-14 00:40:00,89.5,35.7,29.76,NW,304,3.0,5.0,15,0.00,,,0.00,WeatherCatV1.21B27,2013-08-14 07:40:00,
2013-08-14 00:45:00,89.4,35.6,29.75,WNW,301,6.0,7.0,15,0.00,,,0.00,WeatherCatV1.21B27,2013-08-14 07:45:00,
2013-08-14 00:50:00,89.5,35.7,29.75,WNW,290,6.0,8.0,15,0.00,,,0.00,WeatherCatV1.21B27,2013-08-14 07:50:00,
2013-08-14 00:55:00,89.6,34.1,29.75,WNW,302,3.0,7.0,14,0.00,,,0.00,WeatherCatV1.21B27,2013-08-14 07:55:00,
2013-08-14 01:00:00,89.5,35.7,29.75,NNW,327,4.0,8.0,15,0.00,,,0.00,WeatherCatV1.21B27,2013-08-14 08:00:00,
2013-08-14 01:05:00,89.2,35.5,29.76,NW,325,5.0,5.0,15,0.00,,,0.00,WeatherCatV1.21B27,2013-08-14 08:05:00,
2013-08-14 01:10:00,88.7,35.1,29.76,NW,320,2.0,5.0,15,0.00,,,0.00,WeatherCatV1.21B27,2013-08-14 08:10:00,
2013-08-14 01:15:00,88.3,34.8,29.76,WNW,286,4.0,5.0,15,0.00,,,0.00,WeatherCatV1.21B27,2013-08-14 08:15:00,
2013-08-14 01:20:00,88.3,34.8,29.76,WNW,296,3.0,7.0,15,0.00,,,0.00,WeatherCatV1.21B27,2013-08-14 08:20:00,
2013-08-14 01:25:00,88.5,34.9,29.76,North,350,5.0,7.0,15,0.00,,,0.00,WeatherCatV1.21B27,2013-08-14 08:25:00,
2013-08-14 01:30:00,88.5,34.9,29.76,NW,306,5.0,9.0,15,0.00,,,0.00,WeatherCatV1.21B27,2013-08-14 08:30:00,
2013-08-14 01:35:00,88.7,35.1,29.76,NW,321,4.0,6.0,15,0.00,,,0.00,WeatherCatV1.21B27,2013-08-14 08:35:00,
2013-08-14 01:40:00,88.4,36.5,29.76,NNE,21,3.0,5.0,16,0.00,,,0.00,WeatherCatV1.21B27,2013-08-14 08:40:00,
2013-08-14 01:45:00,87.6,35.8,29.76,NW,311,2.0,5.0,16,0.00,,,0.00,WeatherCatV1.21B27,2013-08-14 08:45:00,
2013-08-14 01:50:00,86.5,36.5,29.76,NNW,336,4.0,5.0,17,0.00,,,0.00,WeatherCatV1.21B27,2013-08-14 08:50:00,
2013-08-14 01:55:00,85.4,38.4,29.76,NW,325,3.0,6.0,19,0.00,,,0.00,WeatherCatV1.21B27,2013-08-14 08:55:00,
2013-08-14 02:00:00,84.7,39.2,29.76,WNW,301,2.0,3.0,20,0.00,,,0.00,WeatherCatV1.21B27,2013-08-14 09:00:00,
2013-08-14 02:05:00,84.0,38.6,29.76,NW,316,2.0,2.0,20,0.00,,,0.00,WeatherCatV1.21B27,2013-08-14 09:05:00,
2013-08-14 02:10:00,83.5,39.4,29.76,NW,311,1.0,4.0,21,0.00,,,0.00,WeatherCatV1.21B27,2013-08-14 09:10:00,
2013-08-14 02:15:00,83.3,38.0,29.76,NW,311,2.0,2.0,20,0.00,,,0.00,WeatherCatV1.21B27,2013-08-14 09:15:00,
2013-08-14 02:20:00,83.2,39.2,29.76,NW,314,2.0,2.0,21,0.00,,,0.00,WeatherCatV1.21B27,2013-08-14 09:20:00,
2013-08-14 02:25:00,83.2,39.2,29.76,NNW,342,0.0,0.0,21,0.00,,,0.00,WeatherCatV1.21B27,2013-08-14 09:25:00,
2013-08-14 02:30:00,83.1,39.1,29.77,ENE,73,1.0,3.0,21,0.00,,,0.00,WeatherCatV1.21B27,2013-08-14 09:30:00,
2013-08-14 02:35:00,82.7,38.8,29.77,ENE,73,0.0,1.0,21,0.00,,,0.00,WeatherCatV1.21B27,2013-08-14 09:35:00,
2013-08-14 02:40:00,82.2,38.4,29.77,NNW,332,2.0,2.0,21,0.00,,,0.00,WeatherCatV1.21B27,2013-08-14 09:40:00,
2013-08-14 02:45:00,81.6,39.0,29.77,NW,313,0.0,2.0,22,0.00,,,0.00,WeatherCatV1.21B27,2013-08-14 09:45:00,
2013-08-14 02:50:00,81.2,38.7,29.77,NW,313,1.0,1.0,22,0.00,,,0.00,WeatherCatV1.21B27,2013-08-14 09:50:00,
2013-08-14 02:55:00,80.6,39.3,29.78,NW,315,0.0,0.0,23,0.00,,,0.00,WeatherCatV1.21B27,2013-08-14 09:55:00,
2013-08-14 03:00:00,80.1,38.9,29.77,NW,315,0.0,1.0,23,0.00,,,0.00,WeatherCatV1.21B27,2013-08-14 10:00:00,
2013-08-14 03:05:00,79.8,37.5,29.77,WNW,294,0.0,1.0,22,0.00,,,0.00,WeatherCatV1.21B27,2013-08-14 10:05:00,
2013-08-14 03:10:00,79.9,38.8,29.77,WSW,241,3.0,3.0,23,0.00,,,0.00,WeatherCatV1.21B27,2013-08-14 10:10:00,
2013-08-14 03:15:00,80.1,36.6,29.78,West,269,3.0,4.0,21,0.00,,,0.00,WeatherCatV1.21B27,2013-08-14 10:15:00,
2013-08-14 03:20:00,80.3,36.8,29.78,WSW,239,3.0,4.0,21,0.00,,,0.00,WeatherCatV1.21B27,2013-08-14 10:20:00,
2013-08-14 03:25:00,80.6,37.0,29.78,WSW,240,3.0,4.0,21,0.00,,,0.00,WeatherCatV1.21B27,2013-08-14 10:25:00,
2013-08-14 03:30:00,80.8,36.0,29.77,WSW,246,3.0,4.0,20,0.00,,,0.00,WeatherCatV1.21B27,2013-08-14 10:30:00,
2013-08-14 03:35:00,81.0,36.1,29.77,West,265,2.0,4.0,20,0.00,,,0.00,WeatherCatV1.21B27,2013-08-14 10:35:00,
2013-08-14 03:40:00,81.2,36.3,29.77,West,267,3.0,4.0,20,0.00,,,0.00,WeatherCatV1.21B27,2013-08-14 10:40:00,
2013-08-14 03:45:00,81.8,35.5,29.77,West,263,2.0,5.0,19,0.00,,,0.00,WeatherCatV1.21B27,2013-08-14 10:45:00,
2013-08-14 03:50:00,82.3,35.9,29.77,West,271,3.0,4.0,19,0.00,,,0.00,WeatherCatV1.21B27,2013-08-14 10:50:00,
2013-08-14 03:55:00,82.4,37.3,29.78,NNW,346,3.0,5.0,20,0.00,,,0.00,WeatherCatV1.21B27,2013-08-14 10:55:00,
2013-08-14 04:00:00,81.6,40.2,29.78,NNW,338,2.0,4.0,23,0.00,,,0.00,WeatherCatV1.21B27,2013-08-14 11:00:00,
2013-08-14 04:05:00,80.5,40.4,29.78,NNW,327,3.0,3.0,24,0.00,,,0.00,WeatherCatV1.21B27,2013-08-14 11:05:00,
2013-08-14 04:10:00,79.6,40.7,29.78,NNW,332,0.0,1.0,25,0.00,,,0.00,WeatherCatV1.21B27,2013-08-14 11:10:00,
2013-08-14 04:15:00,79.0,40.2,29.78,NNW,332,0.0,1.0,25,0.00,,,0.00,WeatherCatV1.21B27,2013-08-14 11:15:00,
2013-08-14 04:20:00,78.6,40.8,29.78,NNW,332,1.0,3.0,26,0.00,,,0.00,WeatherCatV1.21B27,2013-08-14 11:20:00,
2013-08-14 04:25:00,78.4,40.7,29.79,NNW,332,0.0,0.0,26,0.00,,,0.00,WeatherCatV1.21B27,2013-08-14 11:25:00,
2013-08-14 04:30:00,78.1,40.4,29.78,NNW,332,0.0,0.0,26,0.00,,,0.00,WeatherCatV1.21B27,2013-08-14 11:30:00,
2013-08-14 04:35:00,77.8,40.2,29.78,NNW,332,0.0,0.0,26,0.00,,,0.00,WeatherCatV1.21B27,2013-08-14 11:35:00,
2013-08-14 04:40:00,77.6,40.0,29.78,NNW,332,0.0,1.0,26,0.00,,,0.00,WeatherCatV1.21B27,2013-08-14 11:40:00,
2013-08-14 04:45:00,77.3,39.7,29.78,NW,306,2.0,2.0,26,0.00,,,0.00,WeatherCatV1.21B27,2013-08-14 11:45:00,
2013-08-14 04:50:00,77.2,39.6,29.78,West,259,3.0,4.0,26,0.00,,,0.00,WeatherCatV1.21B27,2013-08-14 11:50:00,
2013-08-14 04:55:00,77.3,39.7,29.78,West,270,3.0,3.0,26,0.00,,,0.00,WeatherCatV1.21B27,2013-08-14 11:55:00,
2013-08-14 05:00:00,77.4,39.8,29.78,West,270,0.0,2.0,26,0.00,,,0.00,WeatherCatV1.21B27,2013-08-14 12:00:00,
2013-08-14 05:05:00,77.3,39.7,29.78,West,270,0.0,1.0,26,0.00,,,0.00,WeatherCatV1.21B27,2013-08-14 12:05:00,
2013-08-14 05:10:00,77.4,39.8,29.78,West,270,0.0,0.0,26,0.00,,,0.00,WeatherCatV1.21B27,2013-08-14 12:10:00,
2013-08-14 05:15:00,77.3,39.7,29.78,West,263,3.0,3.0,26,0.00,,,0.00,WeatherCatV1.21B27,2013-08-14 12:15:00,
2013-08-14 05:20:00,77.2,39.6,29.78,West,265,5.0,6.0,26,0.00,,,0.00,WeatherCatV1.21B27,2013-08-14 12:20:00,
2013-08-14 05:25:00,77.5,39.9,29.78,West,261,3.0,3.0,26,0.00,,,0.00,WeatherCatV1.21B27,2013-08-14 12:25:00,
2013-08-14 05:30:00,77.7,39.1,29.79,West,263,5.0,5.0,25,0.00,,,0.00,WeatherCatV1.21B27,2013-08-14 12:30:00,
2013-08-14 05:35:00,78.0,39.3,29.79,West,265,4.0,5.0,25,0.00,,,0.00,WeatherCatV1.21B27,2013-08-14 12:35:00,
2013-08-14 05:40:00,78.7,40.9,29.79,West,275,4.0,5.0,26,0.00,,,0.00,WeatherCatV1.21B27,2013-08-14 12:40:00,
2013-08-14 05:45:00,79.8,43.8,29.79,West,265,3.0,3.0,28,0.00,,,0.00,WeatherCatV1.21B27,2013-08-14 12:45:00,
2013-08-14 05:50:00,80.5,43.4,29.79,WSW,256,0.0,4.0,27,0.00,,,0.00,WeatherCatV1.21B27,2013-08-14 12:50:00,
2013-08-14 05:55:00,80.5,40.4,29.79,WSW,256,0.0,2.0,24,0.00,,,0.00,WeatherCatV1.21B27,2013-08-14 12:55:00,
2013-08-14 06:00:00,80.1,42.1,29.80,WSW,256,0.0,1.0,26,0.00,,,0.00,WeatherCatV1.21B27,2013-08-14 13:00:00,
2013-08-14 06:05:00,79.5,41.6,29.80,WSW,256,0.0,1.0,26,0.00,,,0.00,WeatherCatV1.21B27,2013-08-14 13:05:00,
2013-08-14 06:10:00,79.0,42.1,29.80,West,259,0.0,2.0,27,0.00,,,0.00,WeatherCatV1.21B27,2013-08-14 13:10:00,
2013-08-14 06:15:00,78.8,42.0,29.81,West,259,0.0,0.0,27,0.00,,,0.00,WeatherCatV1.21B27,2013-08-14 13:15:00,
2013-08-14 06:20:00,78.5,41.7,29.81,West,266,0.0,1.0,27,0.00,,,0.00,WeatherCatV1.21B27,2013-08-14 13:20:00,
2013-08-14 06:25:00,78.6,41.8,29.81,West,266,0.0,0.0,27,0.00,,,0.00,WeatherCatV1.21B27,2013-08-14 13:25:00,
2013-08-14 06:30:00,78.7,41.9,29.81,West,266,0.0,0.0,27,0.00,,,0.00,WeatherCatV1.21B27,2013-08-14 13:30:00,
2013-08-14 06:35:00,78.7,41.9,29.81,West,268,0.0,0.0,27,0.00,,,0.00,WeatherCatV1.21B27,2013-08-14 13:35:00,
2013-08-14 06:40:00,78.8,42.0,29.81,West,269,0.0,0.0,27,0.00,,,0.00,WeatherCatV1.21B27,2013-08-14 13:40:00,
2013-08-14 06:45:00,78.7,42.8,29.82,West,269,0.0,1.0,28,0.00,,,0.00,WeatherCatV1.21B27,2013-08-14 13:45:00,
2013-08-14 06:50:00,78.5,42.7,29.82,West,269,0.0,0.0,28,0.00,,,0.00,WeatherCatV1.21B27,2013-08-14 13:50:00,
2013-08-14 06:55:00,78.5,42.7,29.82,West,269,2.0,2.0,28,0.00,,,0.00,WeatherCatV1.21B27,2013-08-14 13:55:00,
2013-08-14 07:00:00,78.5,43.6,29.82,West,269,0.0,0.0,29,0.00,,,0.00,WeatherCatV1.21B27,2013-08-14 14:00:00,
2013-08-14 07:05:00,78.7,43.8,29.82,West,269,0.0,0.0,29,0.00,,,0.00,WeatherCatV1.21B27,2013-08-14 14:05:00,
2013-08-14 07:10:00,78.9,43.9,29.81,West,269,0.0,2.0,29,0.00,,,0.00,WeatherCatV1.21B27,2013-08-14 14:10:00,
2013-08-14 07:15:00,79.1,44.1,29.81,WNW,296,0.0,3.0,29,0.00,,,0.00,WeatherCatV1.21B27,2013-08-14 14:15:00,
2013-08-14 07:20:00,79.5,43.5,29.81,WNW,296,0.0,0.0,28,0.00,,,0.00,WeatherCatV1.21B27,2013-08-14 14:20:00,
2013-08-14 07:25:00,80.3,43.2,29.81,WNW,296,0.0,0.0,27,0.00,,,0.00,WeatherCatV1.21B27,2013-08-14 14:25:00,
2013-08-14 07:30:00,81.4,44.2,29.81,North,10,0.0,2.0,27,0.00,,,0.00,WeatherCatV1.21B27,2013-08-14 14:30:00,
2013-08-14 07:35:00,82.2,44.9,29.82,NE,34,1.0,4.0,27,0.00,,,0.00,WeatherCatV1.21B27,2013-08-14 14:35:00,
2013-08-14 07:40:00,82.7,44.3,29.82,North,0,3.0,3.0,26,0.00,,,0.00,WeatherCatV1.21B27,2013-08-14 14:40:00,
2013-08-14 07:45:00,82.8,45.4,29.82,North,355,1.0,4.0,27,0.00,,,0.00,WeatherCatV1.21B27,2013-08-14 14:45:00,
2013-08-14 07:50:00,83.0,45.5,29.82,North,5,2.0,2.0,27,0.00,,,0.00,WeatherCatV1.21B27,2013-08-14 14:50:00,
2013-08-14 07:55:00,83.3,46.8,29.82,North,351,3.0,3.0,28,0.00,,,0.00,WeatherCatV1.21B27,2013-08-14 14:55:00,
2013-08-14 08:00:00,83.4,46.8,29.82,North,0,1.0,2.0,28,0.00,,,0.00,WeatherCatV1.21B27,2013-08-14 15:00:00,
2013-08-14 08:05:00,83.7,47.1,29.82,North,0,1.0,2.0,28,0.00,,,0.00,WeatherCatV1.21B27,2013-08-14 15:05:00,
2013-08-14 08:10:00,84.0,47.4,29.81,North,0,1.0,3.0,28,0.00,,,0.00,WeatherCatV1.21B27,2013-08-14 15:10:00,
2013-08-14 08:15:00,84.3,47.6,29.82,North,0,1.0,2.0,28,0.00,,,0.00,WeatherCatV1.21B27,2013-08-14 15:15:00,
2013-08-14 08:20:00,84.7,48.0,29.82,North,0,1.0,3.0,28,0.00,,,0.00,WeatherCatV1.21B27,2013-08-14 15:20:00,
2013-08-14 08:25:00,85.2,47.4,29.82,NE,36,2.0,4.0,27,0.00,,,0.00,WeatherCatV1.21B27,2013-08-14 15:25:00,
2013-08-14 08:30:00,85.9,48.0,29.81,NNE,28,3.0,4.0,27,0.00,,,0.00,WeatherCatV1.21B27,2013-08-14 15:30:00,
2013-08-14 08:35:00,86.4,48.4,29.81,North,0,2.0,4.0,27,0.00,,,0.00,WeatherCatV1.21B27,2013-08-14 15:35:00,
2013-08-14 08:40:00,87.2,50.1,29.81,NNW,344,4.0,4.0,28,0.00,,,0.00,WeatherCatV1.21B27,2013-08-14 15:40:00,
2013-08-14 08:45:00,87.6,51.4,29.81,NW,315,3.0,3.0,29,0.00,,,0.00,WeatherCatV1.21B27,2013-08-14 15:45:00,
2013-08-14 08:50:00,88.4,51.1,29.81,NE,39,0.0,5.0,28,0.00,,,0.00,WeatherCatV1.21B27,2013-08-14 15:50:00,
2013-08-14 08:54:00,88.8,54.2,29.81,NNW,339,1.0,6.0,31,0.00,,,0.00,WeatherCatV1.21B27,2013-08-14 15:54:00,
2013-08-14 08:59:00,88.6,54.0,29.81,NNE,33,1.0,3.0,31,0.00,,,0.00,WeatherCatV1.21B27,2013-08-14 15:59:00,
2013-08-14 09:04:00,88.5,53.1,29.81,NNE,13,3.0,3.0,30,0.00,,,0.00,WeatherCatV1.21B27,2013-08-14 16:04:00,
2013-08-14 09:09:00,88.4,53.0,29.81,NNW,344,0.0,3.0,30,0.00,,,0.00,WeatherCatV1.21B27,2013-08-14 16:09:00,
2013-08-14 09:14:00,88.3,52.0,29.81,ESE,103,3.0,5.0,29,0.00,,,0.00,WeatherCatV1.21B27,2013-08-14 16:14:00,
2013-08-14 09:19:00,88.0,51.7,29.81,NE,49,1.0,3.0,29,0.00,,,0.00,WeatherCatV1.21B27,2013-08-14 16:19:00,
2013-08-14 09:21:00,88.0,51.7,29.81,ENE,67,2.0,3.0,29,0.00,,,0.00,WeatherCatV1.21B27,2013-08-14 16:21:00,
2013-08-14 09:26:00,88.0,51.7,29.81,NNE,12,0.0,3.0,29,0.00,,,0.00,WeatherCatV1.21B27,2013-08-14 16:26:00,
2013-08-14 09:31:00,88.1,51.8,29.81,East,82,3.0,3.0,29,0.00,,,0.00,WeatherCatV1.21B27,2013-08-14 16:31:00,
2013-08-14 09:36:00,88.8,51.5,29.81,East,82,0.0,1.0,28,0.00,,,0.00,WeatherCatV1.21B27,2013-08-14 16:36:00,
2013-08-14 09:41:00,90.1,52.6,29.81,North,355,2.0,4.0,28,0.00,,,0.00,WeatherCatV1.21B27,2013-08-14 16:41:00,
2013-08-14 09:46:00,91.3,52.6,29.81,East,86,0.0,2.0,27,0.00,,,0.00,WeatherCatV1.21B27,2013-08-14 16:46:00,
2013-08-14 09:51:00,91.9,52.1,29.81,NE,49,2.0,4.0,26,0.00,,,0.00,WeatherCatV1.21B27,2013-08-14 16:51:00,
2013-08-14 09:56:00,92.8,50.7,29.81,ENE,75,2.0,6.0,24,0.00,,,0.00,WeatherCatV1.21B27,2013-08-14 16:56:00,
2013-08-14 10:01:00,93.0,49.7,29.81,NNW,328,0.0,3.0,23,0.00,,,0.00,WeatherCatV1.21B27,2013-08-14 17:01:00,
2013-08-14 10:06:00,92.9,50.7,29.81,NNW,330,0.0,2.0,24,0.00,,,0.00,WeatherCatV1.21B27,2013-08-14 17:06:00,
2013-08-14 10:11:00,92.9,50.7,29.81,ENE,60,0.0,3.0,24,0.00,,,0.00,WeatherCatV1.21B27,2013-08-14 17:11:00,
2013-08-14 10:16:00,92.8,50.7,29.81,NW,309,3.0,4.0,24,0.00,,,0.00,WeatherCatV1.21B27,2013-08-14 17:16:00,
2013-08-14 10:21:00,92.5,51.5,29.80,North,355,0.0,4.0,25,0.00,,,0.00,WeatherCatV1.21B27,2013-08-14 17:21:00,
2013-08-14 10:26:00,92.8,51.8,29.80,NNW,334,1.0,3.0,25,0.00,,,0.00,WeatherCatV1.21B27,2013-08-14 17:26:00,
2013-08-14 10:31:00,93.1,50.9,29.80,NW,306,3.0,6.0,24,0.00,,,0.00,WeatherCatV1.21B27,2013-08-14 17:31:00,
2013-08-14 10:36:00,93.1,47.3,29.80,NNW,328,3.0,7.0,21,0.00,,,0.00,WeatherCatV1.21B27,2013-08-14 17:36:00,
2013-08-14 10:41:00,92.8,49.5,29.80,NW,319,4.0,6.0,23,0.00,,,0.00,WeatherCatV1.21B27,2013-08-14 17:41:00,
2013-08-14 10:46:00,92.9,47.2,29.80,NW,316,5.0,6.0,21,0.00,,,0.00,WeatherCatV1.21B27,2013-08-14 17:46:00,
2013-08-14 10:51:00,93.0,48.5,29.80,NNW,346,3.0,7.0,22,0.00,,,0.00,WeatherCatV1.21B27,2013-08-14 17:51:00,
2013-08-14 10:56:00,93.6,47.7,29.80,ENE,64,1.0,5.0,21,0.00,,,0.00,WeatherCatV1.21B27,2013-08-14 17:56:00,
2013-08-14 11:01:00,94.3,48.3,29.80,WNW,301,4.0,6.0,21,0.00,,,0.00,WeatherCatV1.21B27,2013-08-14 18:01:00,
2013-08-14 11:06:00,94.6,47.3,29.80,WNW,285,1.0,6.0,20,0.00,,,0.00,WeatherCatV1.21B27,2013-08-14 18:06:00,
2013-08-14 11:11:00,95.2,47.8,29.80,NW,309,2.0,7.0,20,0.00,,,0.00,WeatherCatV1.21B27,2013-08-14 18:11:00,
2013-08-14 11:16:00,95.3,47.8,29.79,NNW,335,4.0,6.0,20,0.00,,,0.00,WeatherCatV1.21B27,2013-08-14 18:16:00,
2013-08-14 11:21:00,95.3,46.5,29.79,NE,47,1.0,5.0,19,0.00,,,0.00,WeatherCatV1.21B27,2013-08-14 18:21:00,
2013-08-14 11:26:00,95.5,46.6,29.79,WNW,302,3.0,6.0,19,0.00,,,0.00,WeatherCatV1.21B27,2013-08-14 18:26:00,
2013-08-14 11:31:00,95.7,46.8,29.78,NW,317,4.0,6.0,19,0.00,,,0.00,WeatherCatV1.21B27,2013-08-14 18:31:00,
2013-08-14 11:36:00,96.0,45.6,29.78,NNW,331,1.0,7.0,18,0.00,,,0.00,WeatherCatV1.21B27,2013-08-14 18:36:00,
2013-08-14 11:41:00,96.7,43.1,29.78,NW,321,4.0,8.0,16,0.00,,,0.00,WeatherCatV1.21B27,2013-08-14 18:41:00,
2013-08-14 11:46:00,97.4,43.6,29.78,North,5,1.0,5.0,16,0.00,,,0.00,WeatherCatV1.21B27,2013-08-14 18:46:00,
2013-08-14 11:51:00,98.3,42.7,29.78,NNE,31,3.0,4.0,15,0.00,,,0.00,WeatherCatV1.21B27,2013-08-14 18:51:00,
2013-08-14 11:56:00,98.5,42.8,29.78,North,349,2.0,5.0,15,0.00,,,0.00,WeatherCatV1.21B27,2013-08-14 18:56:00,
2013-08-14 12:01:00,98.5,44.5,29.78,East,84,5.0,5.0,16,0.00,,,0.00,WeatherCatV1.21B27,2013-08-14 19:01:00,
2013-08-14 12:06:00,98.0,40.6,29.78,WNW,295,3.0,5.0,14,0.00,,,0.00,WeatherCatV1.21B27,2013-08-14 19:06:00,
2013-08-14 12:12:00,97.4,42.0,29.77,North,5,2.0,4.0,15,0.00,,,0.00,WeatherCatV1.21B27,2013-08-14 19:12:00,
2013-08-14 12:13:00,97.5,42.0,29.77,NNW,347,3.0,6.0,15,0.00,,,0.00,WeatherCatV1.21B27,2013-08-14 19:13:00,
2013-08-14 12:18:00,98.3,42.7,29.77,NNW,342,1.0,3.0,15,0.00,,,0.00,WeatherCatV1.21B27,2013-08-14 19:18:00,
2013-08-14 12:23:00,99.6,43.7,29.77,WNW,302,7.0,7.0,15,0.00,,,0.00,WeatherCatV1.21B27,2013-08-14 19:23:00,
2013-08-14 12:28:00,99.5,41.8,29.77,WNW,290,2.0,6.0,14,0.00,,,0.00,WeatherCatV1.21B27,2013-08-14 19:28:00,
2013-08-14 12:33:00,99.3,41.7,29.76,NNW,338,2.0,6.0,14,0.00,,,0.00,WeatherCatV1.21B27,2013-08-14 19:33:00,
2013-08-14 12:38:00,99.7,42.0,29.76,West,270,1.0,5.0,14,0.00,,,0.00,WeatherCatV1.21B27,2013-08-14 19:38:00,
2013-08-14 12:43:00,100.4,42.5,29.76,NNE,12,2.0,5.0,14,0.00,,,0.00,WeatherCatV1.21B27,2013-08-14 19:43:00,
2013-08-14 12:48:00,100.3,42.4,29.75,NW,324,9.0,9.0,14,0.00,,,0.00,WeatherCatV1.21B27,2013-08-14 19:48:00,
2013-08-14 12:53:00,100.0,42.2,29.75,NW,325,0.0,2.0,14,0.00,,,0.00,WeatherCatV1.21B27,2013-08-14 19:53:00,
2013-08-14 12:58:00,101.1,43.1,29.74,NW,324,6.0,10.0,14,0.00,,,0.00,WeatherCatV1.21B27,2013-08-14 19:58:00,
2013-08-14 13:03:00,100.9,42.9,29.74,North,355,3.0,8.0,14,0.00,,,0.00,WeatherCatV1.21B27,2013-08-14 20:03:00,
2013-08-14 13:08:00,100.8,44.6,29.74,North,0,5.0,7.0,15,0.00,,,0.00,WeatherCatV1.21B27,2013-08-14 20:08:00,
2013-08-14 13:13:00,101.0,44.8,29.74,NNE,12,1.0,6.0,15,0.00,,,0.00,WeatherCatV1.21B27,2013-08-14 20:13:00,
2013-08-14 13:18:00,101.3,45.0,29.74,NNW,331,4.0,7.0,15,0.00,,,0.00,WeatherCatV1.21B27,2013-08-14 20:18:00,
2013-08-14 13:23:00,101.3,46.7,29.73,NNE,19,7.0,7.0,16,0.00,,,0.00,WeatherCatV1.21B27,2013-08-14 20:23:00,
2013-08-14 13:28:00,101.6,45.3,29.73,NW,312,6.0,7.0,15,0.00,,,0.00,WeatherCatV1.21B27,2013-08-14 20:28:00,
2013-08-14 13:33:00,101.7,45.3,29.73,NW,308,4.0,7.0,15,0.00,,,0.00,WeatherCatV1.21B27,2013-08-14 20:33:00,
2013-08-14 13:38:00,101.8,43.6,29.73,North,355,5.0,9.0,14,0.00,,,0.00,WeatherCatV1.21B27,2013-08-14 20:38:00,
2013-08-14 13:43:00,101.8,45.4,29.73,WNW,292,3.0,6.0,15,0.00,,,0.00,WeatherCatV1.21B27,2013-08-14 20:43:00,
2013-08-14 13:48:00,102.1,47.4,29.72,NNW,342,5.0,9.0,16,0.00,,,0.00,WeatherCatV1.21B27,2013-08-14 20:48:00,
2013-08-14 13:53:00,101.9,47.2,29.72,NNW,342,0.0,2.0,16,0.00,,,0.00,WeatherCatV1.21B27,2013-08-14 20:53:00,
2013-08-14 13:58:00,102.8,47.9,29.72,NW,321,4.0,6.0,16,0.00,,,0.00,WeatherCatV1.21B27,2013-08-14 20:58:00,
2013-08-14 14:03:00,102.8,46.2,29.71,NW,319,5.0,9.0,15,0.00,,,0.00,WeatherCatV1.21B27,2013-08-14 21:03:00,
2013-08-14 14:08:00,102.5,47.7,29.71,NW,318,7.0,9.0,16,0.00,,,0.00,WeatherCatV1.21B27,2013-08-14 21:08:00,
2013-08-14 14:13:00,102.1,47.4,29.71,WNW,296,5.0,6.0,16,0.00,,,0.00,WeatherCatV1.21B27,2013-08-14 21:13:00,
2013-08-14 14:18:00,102.2,47.4,29.70,West,274,3.0,6.0,16,0.00,,,0.00,WeatherCatV1.21B27,2013-08-14 21:18:00,
2013-08-14 14:23:00,103.0,48.1,29.70,WNW,283,6.0,7.0,16,0.00,,,0.00,WeatherCatV1.21B27,2013-08-14 21:23:00,
2013-08-14 14:28:00,103.2,48.2,29.70,NNW,342,4.0,5.0,16,0.00,,,0.00,WeatherCatV1.21B27,2013-08-14 21:28:00,
2013-08-14 14:33:00,103.2,48.2,29.69,NNW,327,9.0,11.0,16,0.00,,,0.00,WeatherCatV1.21B27,2013-08-14 21:33:00,
2013-08-14 14:38:00,102.6,47.8,29.70,WNW,298,5.0,12.0,16,0.00,,,0.00,WeatherCatV1.21B27,2013-08-14 21:38:00,
2013-08-14 14:43:00,102.4,47.6,29.69,NNW,343,4.0,10.0,16,0.00,,,0.00,WeatherCatV1.21B27,2013-08-14 21:43:00,
2013-08-14 14:48:00,102.6,47.8,29.69,WNW,289,10.0,13.0,16,0.00,,,0.00,WeatherCatV1.21B27,2013-08-14 21:48:00,
2013-08-14 14:53:00,102.4,47.6,29.69,WNW,298,3.0,3.0,16,0.00,,,0.00,WeatherCatV1.21B27,2013-08-14 21:53:00,
2013-08-14 14:58:00,102.7,49.5,29.69,NNW,327,6.0,10.0,17,0.00,,,0.00,WeatherCatV1.21B27,2013-08-14 21:58:00,
2013-08-14 15:03:00,102.6,47.8,29.69,NNE,15,9.0,9.0,16,0.00,,,0.00,WeatherCatV1.21B27,2013-08-14 22:03:00,
2013-08-14 15:08:00,102.9,48.0,29.69,ESE,109,0.0,6.0,16,0.00,,,0.00,WeatherCatV1.21B27,2013-08-14 22:08:00,
2013-08-14 15:13:00,103.6,48.5,29.68,North,5,9.0,9.0,16,0.00,,,0.00,WeatherCatV1.21B27,2013-08-14 22:13:00,
2013-08-14 15:18:00,103.9,48.8,29.68,North,350,4.0,9.0,16,0.00,,,0.00,WeatherCatV1.21B27,2013-08-14 22:18:00,
2013-08-14 15:23:00,103.6,48.5,29.68,NW,317,2.0,4.0,16,0.00,,,0.00,WeatherCatV1.21B27,2013-08-14 22:23:00,
2013-08-14 15:28:00,103.4,48.4,29.67,NW,314,7.0,7.0,16,0.00,,,0.00,WeatherCatV1.21B27,2013-08-14 22:28:00,
2013-08-14 15:33:00,103.3,49.9,29.67,NW,304,4.0,10.0,17,0.00,,,0.00,WeatherCatV1.21B27,2013-08-14 22:33:00,
2013-08-14 15:38:00,103.0,49.7,29.67,NNW,327,9.0,11.0,17,0.00,,,0.00,WeatherCatV1.21B27,2013-08-14 22:38:00,
2013-08-14 15:43:00,102.8,49.5,29.67,NW,309,9.0,9.0,17,0.00,,,0.00,WeatherCatV1.21B27,2013-08-14 22:43:00,
2013-08-14 15:48:00,103.1,49.8,29.67,WNW,299,9.0,11.0,17,0.00,,,0.00,WeatherCatV1.21B27,2013-08-14 22:48:00,
2013-08-14 15:53:00,103.2,48.2,29.67,WNW,294,2.0,8.0,16,0.00,,,0.00,WeatherCatV1.21B27,2013-08-14 22:53:00,
2013-08-14 15:58:00,103.7,50.2,29.67,NW,309,3.0,7.0,17,0.00,,,0.00,WeatherCatV1.21B27,2013-08-14 22:58:00,
2013-08-14 16:03:00,103.4,48.4,29.67,NW,323,5.0,8.0,16,0.00,,,0.00,WeatherCatV1.21B27,2013-08-14 23:03:00,
2013-08-14 16:08:00,103.1,49.8,29.67,NNW,344,5.0,6.0,17,0.00,,,0.00,WeatherCatV1.21B27,2013-08-14 23:08:00,
2013-08-14 16:13:00,103.2,48.2,29.67,NW,323,5.0,8.0,16,0.00,,,0.00,WeatherCatV1.21B27,2013-08-14 23:13:00,
2013-08-14 16:18:00,103.4,48.4,29.67,NNW,347,6.0,7.0,16,0.00,,,0.00,WeatherCatV1.21B27,2013-08-14 23:18:00,
2013-08-14 16:23:00,103.7,48.6,29.67,NW,314,8.0,10.0,16,0.00,,,0.00,WeatherCatV1.21B27,2013-08-14 23:23:00,
2013-08-14 16:28:00,103.0,49.7,29.67,NW,321,6.0,9.0,17,0.00,,,0.00,WeatherCatV1.21B27,2013-08-14 23:28:00,
2013-08-14 16:33:00,102.9,49.6,29.67,WNW,290,8.0,9.0,17,0.00,,,0.00,WeatherCatV1.21B27,2013-08-14 23:33:00,
2013-08-14 16:38:00,102.9,49.6,29.67,WNW,303,8.0,9.0,17,0.00,,,0.00,WeatherCatV1.21B27,2013-08-14 23:38:00,
2013-08-14 16:43:00,103.0,48.1,29.67,North,0,2.0,4.0,16,0.00,,,0.00,WeatherCatV1.21B27,2013-08-14 23:43:00,
2013-08-14 16:48:00,103.1,48.2,29.67,NW,306,5.0,6.0,16,0.00,,,0.00,WeatherCatV1.21B27,2013-08-14 23:48:00,
2013-08-14 16:53:00,103.4,48.4,29.66,WNW,296,4.0,6.0,16,0.00,,,0.00,WeatherCatV1.21B27,2013-08-14 23:53:00,
2013-08-14 16:58:00,103.7,48.6,29.66,WNW,290,5.0,8.0,16,0.00,,,0.00,WeatherCatV1.21B27,2013-08-14 23:58:00,
2013-08-14 17:03:00,103.1,48.2,29.66,NNW,333,5.0,6.0,16,0.00,,,0.00,WeatherCatV1.21B27,2013-08-15 00:03:00,
2013-08-14 17:08:00,102.5,47.7,29.66,NW,305,3.0,5.0,16,0.00,,,0.00,WeatherCatV1.21B27,2013-08-15 00:08:00,
2013-08-14 17:13:00,102.2,49.1,29.66,NW,319,4.0,10.0,17,0.00,,,0.00,WeatherCatV1.21B27,2013-08-15 00:13:00,
2013-08-14 17:18:00,101.9,48.8,29.66,NW,322,5.0,11.0,17,0.00,,,0.00,WeatherCatV1.21B27,2013-08-15 00:18:00,
2013-08-14 17:23:00,101.4,48.4,29.66,NW,312,6.0,7.0,17,0.00,,,0.00,WeatherCatV1.21B27,2013-08-15 00:23:00,
2013-08-14 17:28:00,101.0,48.1,29.66,NW,312,6.0,9.0,17,0.00,,,0.00,WeatherCatV1.21B27,2013-08-15 00:28:00,
2013-08-14 17:33:00,100.7,47.9,29.66,NNW,338,6.0,11.0,17,0.00,,,0.00,WeatherCatV1.21B27,2013-08-15 00:33:00,
2013-08-14 17:38:00,100.7,47.9,29.66,NW,326,6.0,7.0,17,0.00,,,0.00,WeatherCatV1.21B27,2013-08-15 00:38:00,
2013-08-14 17:43:00,100.5,47.7,29.66,NW,316,7.0,11.0,17,0.00,,,0.00,WeatherCatV1.21B27,2013-08-15 00:43:00,
2013-08-14 17:48:00,100.1,48.9,29.66,NNW,342,4.0,7.0,18,0.00,,,0.00,WeatherCatV1.21B27,2013-08-15 00:48:00,
2013-08-14 17:53:00,100.2,49.0,29.66,NNW,340,7.0,11.0,18,0.00,,,0.00,WeatherCatV1.21B27,2013-08-15 00:53:00,
2013-08-14 17:58:00,100.1,48.9,29.66,NNW,330,3.0,6.0,18,0.00,,,0.00,WeatherCatV1.21B27,2013-08-15 00:58:00,
2013-08-14 18:03:00,100.3,49.1,29.66,NW,319,5.0,5.0,18,0.00,,,0.00,WeatherCatV1.21B27,2013-08-15 01:03:00,
2013-08-14 18:08:00,100.2,49.0,29.67,NW,317,2.0,7.0,18,0.00,,,0.00,WeatherCatV1.21B27,2013-08-15 01:08:00,
2013-08-14 18:13:00,100.1,48.9,29.66,North,355,5.0,7.0,18,0.00,,,0.00,WeatherCatV1.21B27,2013-08-15 01:13:00,
2013-08-14 18:18:00,100.0,47.3,29.67,WNW,298,4.0,6.0,17,0.00,,,0.00,WeatherCatV1.21B27,2013-08-15 01:18:00,
2013-08-14 18:23:00,99.9,48.8,29.67,NW,311,4.0,5.0,18,0.00,,,0.00,WeatherCatV1.21B27,2013-08-15 01:23:00,
2013-08-14 18:28:00,99.5,48.4,29.67,NW,306,5.0,5.0,18,0.00,,,0.00,WeatherCatV1.21B27,2013-08-15 01:28:00,
2013-08-14 18:33:00,99.1,48.1,29.67,WNW,300,2.0,6.0,18,0.00,,,0.00,WeatherCatV1.21B27,2013-08-15 01:33:00,
2013-08-14 18:38:00,98.8,47.9,29.68,NNW,331,4.0,4.0,18,0.00,,,0.00,WeatherCatV1.21B27,2013-08-15 01:38:00,
2013-08-14 18:43:00,98.4,49.0,29.68,NW,319,6.0,11.0,19,0.00,,,0.00,WeatherCatV1.21B27,2013-08-15 01:43:00,
2013-08-14 18:48:00,97.9,48.6,29.69,NW,315,6.0,9.0,19,0.00,,,0.00,WeatherCatV1.21B27,2013-08-15 01:48:00,
2013-08-14 18:53:00,97.5,48.2,29.68,NW,310,5.0,8.0,19,0.00,,,0.00,WeatherCatV1.21B27,2013-08-15 01:53:00,
2013-08-14 18:55:00,97.4,48.2,29.68,NW,326,5.0,6.0,19,0.00,,,0.00,WeatherCatV1.21B27,2013-08-15 01:55:00,
2013-08-14 18:58:00,97.2,48.0,29.69,NNW,348,6.0,7.0,19,0.00,,,0.00,WeatherCatV1.21B27,2013-08-15 01:58:00,
2013-08-14 19:00:00,97.1,47.9,29.69,NNW,329,5.0,7.0,19,0.00,,,0.00,WeatherCatV1.21B27,2013-08-15 02:00:00,
2013-08-14 19:05:00,96.9,49.1,29.69,NW,315,4.0,6.0,20,0.00,,,0.00,WeatherCatV1.21B27,2013-08-15 02:05:00,
2013-08-14 19:10:00,96.6,47.5,29.69,NNW,338,1.0,2.0,19,0.00,,,0.00,WeatherCatV1.21B27,2013-08-15 02:10:00,
2013-08-14 19:15:00,96.6,47.5,29.70,ESE,112,3.0,4.0,19,0.00,,,0.00,WeatherCatV1.21B27,2013-08-15 02:15:00,
2013-08-14 19:20:00,96.5,55.9,29.71,SSE,158,3.0,4.0,26,0.00,,,0.00,WeatherCatV1.21B27,2013-08-15 02:20:00,
2013-08-14 19:25:00,95.3,57.0,29.71,SE,135,10.0,16.0,28,0.00,,,0.00,WeatherCatV1.21B27,2013-08-15 02:25:00,
2013-08-14 19:30:00,93.2,58.0,29.72,SSE,158,11.0,16.0,31,0.00,,,0.00,WeatherCatV1.21B27,2013-08-15 02:30:00,
2013-08-14 19:35:00,91.8,57.7,29.72,SSE,158,10.0,18.0,32,0.00,,,0.00,WeatherCatV1.21B27,2013-08-15 02:35:00,
2013-08-14 19:40:00,90.9,58.6,29.73,SE,135,10.0,15.0,34,0.00,,,0.00,WeatherCatV1.21B27,2013-08-15 02:40:00,
2013-08-14 19:45:00,90.2,58.8,29.73,SSE,158,13.0,17.0,35,0.00,,,0.00,WeatherCatV1.21B27,2013-08-15 02:45:00,
2013-08-14 19:50:00,89.7,59.1,29.73,SSE,158,9.0,13.0,36,0.00,,,0.00,WeatherCatV1.21B27,2013-08-15 02:50:00,
2013-08-14 19:55:00,89.4,58.9,29.73,SE,135,6.0,9.0,36,0.00,,,0.00,WeatherCatV1.21B27,2013-08-15 02:55:00,
2013-08-14 20:00:00,89.4,59.7,29.74,SE,135,7.0,11.0,37,0.00,,,0.00,WeatherCatV1.21B27,2013-08-15 03:00:00,
2013-08-14 20:05:00,89.3,59.6,29.74,SE,135,4.0,6.0,37,0.00,,,0.00,WeatherCatV1.21B27,2013-08-15 03:05:00,
2013-08-14 20:10:00,89.2,60.2,29.75,SE,135,4.0,10.0,38,0.00,,,0.00,WeatherCatV1.21B27,2013-08-15 03:10:00,
2013-08-14 20:15:00,89.0,60.0,29.75,SE,135,8.0,11.0,38,0.00,,,0.00,WeatherCatV1.21B27,2013-08-15 03:15:00,
2013-08-14 20:20:00,88.7,59.8,29.75,SE,135,5.0,7.0,38,0.00,,,0.00,WeatherCatV1.21B27,2013-08-15 03:20:00,
2013-08-14 20:25:00,88.6,60.4,29.75,SE,135,4.0,7.0,39,0.00,,,0.00,WeatherCatV1.21B27,2013-08-15 03:25:00,
2013-08-14 20:30:00,88.4,60.3,29.76,ESE,112,7.0,10.0,39,0.00,,,0.00,WeatherCatV1.21B27,2013-08-15 03:30:00,
2013-08-14 20:35:00,88.1,60.7,29.76,SE,135,4.0,5.0,40,0.00,,,0.00,WeatherCatV1.21B27,2013-08-15 03:35:00,
2013-08-14 20:40:00,87.8,61.1,29.76,ESE,112,6.0,11.0,41,0.00,,,0.00,WeatherCatV1.21B27,2013-08-15 03:40:00,
2013-08-14 20:45:00,87.6,60.9,29.76,ESE,112,5.0,8.0,41,0.00,,,0.00,WeatherCatV1.21B27,2013-08-15 03:45:00,
2013-08-14 20:50:00,87.4,60.8,29.77,ESE,112,6.0,10.0,41,0.00,,,0.00,WeatherCatV1.21B27,2013-08-15 03:50:00,
2013-08-14 20:55:00,87.1,59.1,29.77,ESE,112,8.0,10.0,39,0.00,,,0.00,WeatherCatV1.21B27,2013-08-15 03:55:00,
2013-08-14 21:00:00,86.8,58.8,29.78,SE,135,5.0,9.0,39,0.00,,,0.00,WeatherCatV1.21B27,2013-08-15 04:00:00,
2013-08-14 21:05:00,86.8,58.8,29.78,ESE,112,7.0,12.0,39,0.00,,,0.00,WeatherCatV1.21B27,2013-08-15 04:05:00,
2013-08-14 21:10:00,86.6,58.7,29.78,ESE,112,5.0,7.0,39,0.00,,,0.00,WeatherCatV1.21B27,2013-08-15 04:10:00,
2013-08-14 21:15:00,86.4,58.5,29.79,SE,135,5.0,7.0,39,0.00,,,0.00,WeatherCatV1.21B27,2013-08-15 04:15:00,
2013-08-14 21:20:00,86.1,58.2,29.79,ESE,112,11.0,17.0,39,0.00,,,0.00,WeatherCatV1.21B27,2013-08-15 04:20:00,
2013-08-14 21:25:00,85.9,58.0,29.80,ESE,112,12.0,22.0,39,0.00,,,0.00,WeatherCatV1.21B27,2013-08-15 04:25:00,
2013-08-14 21:30:00,85.8,57.2,29.80,SSE,158,11.0,15.0,38,0.00,,,0.00,WeatherCatV1.21B27,2013-08-15 04:30:00,
2013-08-14 21:35:00,85.5,57.7,29.80,SE,135,10.0,15.0,39,0.00,,,0.00,WeatherCatV1.21B27,2013-08-15 04:35:00,
2013-08-14 21:40:00,84.9,57.8,29.81,SE,135,14.0,19.0,40,0.00,,,0.00,WeatherCatV1.21B27,2013-08-15 04:40:00,
2013-08-14 21:45:00,84.4,57.4,29.80,SE,135,12.0,18.0,40,0.00,,,0.00,WeatherCatV1.21B27,2013-08-15 04:45:00,
2013-08-14 21:50:00,84.3,57.3,29.81,SE,135,11.0,16.0,40,0.00,,,0.00,WeatherCatV1.21B27,2013-08-15 04:50:00,
2013-08-14 21:55:00,84.3,57.3,29.80,SE,135,10.0,17.0,40,0.00,,,0.00,WeatherCatV1.21B27,2013-08-15 04:55:00,
2013-08-14 22:00:00,84.2,57.9,29.80,SE,135,9.0,12.0,41,0.00,,,0.00,WeatherCatV1.21B27,2013-08-15 05:00:00,
2013-08-14 22:05:00,84.0,58.4,29.81,SE,135,14.0,18.0,42,0.00,,,0.00,WeatherCatV1.21B27,2013-08-15 05:05:00,
2013-08-14 22:10:00,83.7,58.8,29.81,SE,135,6.0,10.0,43,0.00,,,0.00,WeatherCatV1.21B27,2013-08-15 05:10:00,
2013-08-14 22:15:00,83.7,58.1,29.81,SE,135,8.0,13.0,42,0.00,,,0.00,WeatherCatV1.21B27,2013-08-15 05:15:00,
2013-08-14 22:20:00,83.6,58.7,29.81,SE,135,7.0,11.0,43,0.00,,,0.00,WeatherCatV1.21B27,2013-08-15 05:20:00,
2013-08-14 22:25:00,83.3,58.4,29.81,SE,135,7.0,10.0,43,0.00,,,0.00,WeatherCatV1.21B27,2013-08-15 05:25:00,
2013-08-14 22:30:00,83.2,59.0,29.81,ESE,112,6.0,11.0,44,0.00,,,0.00,WeatherCatV1.21B27,2013-08-15 05:30:00,
2013-08-14 22:35:00,83.2,58.3,29.81,ESE,112,5.0,8.0,43,0.00,,,0.00,WeatherCatV1.21B27,2013-08-15 05:35:00,
2013-08-14 22:40:00,83.3,58.4,29.81,SE,135,3.0,6.0,43,0.00,,,0.00,WeatherCatV1.21B27,2013-08-15 05:40:00,
2013-08-14 22:45:00,83.4,58.5,29.81,ESE,112,5.0,9.0,43,0.00,,,0.00,WeatherCatV1.21B27,2013-08-15 05:45:00,
2013-08-14 22:50:00,83.5,58.6,29.81,SE,135,4.0,10.0,43,0.00,,,0.00,WeatherCatV1.21B27,2013-08-15 05:50:00,
2013-08-14 22:55:00,83.7,58.1,29.81,SE,135,5.0,9.0,42,0.00,,,0.00,WeatherCatV1.21B27,2013-08-15 05:55:00,
2013-08-14 23:00:00,84.0,58.4,29.81,ESE,112,4.0,8.0,42,0.00,,,0.00,WeatherCatV1.21B27,2013-08-15 06:00:00,
2013-08-14 23:05:00,84.1,57.8,29.81,SE,135,5.0,8.0,41,0.00,,,0.00,WeatherCatV1.21B27,2013-08-15 06:05:00,
2013-08-14 23:10:00,84.1,57.8,29.81,SE,135,5.0,10.0,41,0.00,,,0.00,WeatherCatV1.21B27,2013-08-15 06:10:00,
2013-08-14 23:15:00,84.3,57.3,29.81,SE,135,8.0,13.0,40,0.00,,,0.00,WeatherCatV1.21B27,2013-08-15 06:15:00,
2013-08-14 23:20:00,84.5,57.5,29.80,SE,135,8.0,13.0,40,0.00,,,0.00,WeatherCatV1.21B27,2013-08-15 06:20:00,
2013-08-14 23:25:00,84.5,57.5,29.80,SE,135,9.0,12.0,40,0.00,,,0.00,WeatherCatV1.21B27,2013-08-15 06:25:00,
2013-08-14 23:30:00,84.6,57.6,29.80,SE,135,5.0,7.0,40,0.00,,,0.00,WeatherCatV1.21B27,2013-08-15 06:30:00,
2013-08-14 23:35:00,84.5,57.5,29.80,SSE,158,4.0,6.0,40,0.00,,,0.00,WeatherCatV1.21B27,2013-08-15 06:35:00,
2013-08-14 23:40:00,84.4,58.1,29.80,SE,135,8.0,13.0,41,0.00,,,0.00,WeatherCatV1.21B27,2013-08-15 06:40:00,
2013-08-14 23:45:00,84.3,58.0,29.79,SE,135,6.0,9.0,41,0.00,,,0.00,WeatherCatV1.21B27,2013-08-15 06:45:00,
2013-08-14 23:50:00,84.3,58.0,29.79,SE,135,8.0,11.0,41,0.00,,,0.00,WeatherCatV1.21B27,2013-08-15 06:50:00,
2013-08-14 23:55:00,84.3,58.0,29.79,SSE,158,4.0,7.0,41,0.00,,,0.00,WeatherCatV1.21B27,2013-08-15 06:55:00,